createdAt,value
2019-03-17T00:00:16.288Z,9.50
2019-03-17T00:02:44.767Z,9.50
2019-03-17T00:05:13.357Z,9.40
2019-03-17T00:07:41.778Z,9.40
2019-03-17T00:10:10.345Z,9.40
2019-03-17T00:12:38.743Z,9.40
2019-03-17T00:15:07.881Z,9.40
2019-03-17T00:17:36.329Z,9.40
2019-03-17T00:20:06.334Z,9.40
2019-03-17T00:22:34.760Z,9.40
2019-03-17T00:25:09.238Z,9.40
2019-03-17T00:27:33.997Z,9.40
2019-03-17T00:30:02.716Z,9.30
2019-03-17T00:32:31.113Z,9.30
2019-03-17T00:34:59.538Z,9.30
2019-03-17T00:37:27.958Z,9.30
2019-03-17T00:39:56.370Z,9.20
2019-03-17T00:42:24.777Z,9.30
2019-03-17T00:44:53.481Z,9.20
2019-03-17T00:47:21.881Z,9.30
2019-03-17T00:49:50.293Z,9.30
2019-03-17T00:52:18.695Z,9.30
2019-03-17T00:54:47.418Z,9.30
2019-03-17T00:57:15.887Z,9.30
2019-03-17T00:59:44.530Z,9.30
2019-03-17T01:02:12.951Z,9.30
2019-03-17T01:04:41.373Z,9.30
2019-03-17T01:07:09.877Z,9.30
2019-03-17T01:09:38.318Z,9.30
2019-03-17T01:12:06.729Z,9.30
2019-03-17T01:14:35.154Z,9.20
2019-03-17T01:17:03.576Z,9.20
2019-03-17T01:19:32.322Z,9.10
2019-03-17T01:22:00.773Z,9.10
2019-03-17T01:24:29.266Z,9.00
2019-03-17T01:26:57.700Z,9.00
2019-03-17T01:29:26.122Z,9.00
2019-03-17T01:31:54.567Z,9.00
2019-03-17T01:34:23.034Z,9.00
2019-03-17T01:36:51.453Z,8.90
2019-03-17T01:39:19.881Z,8.90
2019-03-17T01:41:48.323Z,8.90
2019-03-17T01:44:16.818Z,8.90
2019-03-17T01:46:45.330Z,8.90
2019-03-17T01:49:13.767Z,8.80
2019-03-17T01:51:42.294Z,8.80
2019-03-17T01:54:10.730Z,8.80
2019-03-17T01:56:39.209Z,8.80
2019-03-17T01:59:07.632Z,8.70
2019-03-17T02:01:36.078Z,8.60
2019-03-17T02:04:04.588Z,8.60
2019-03-17T02:06:33.080Z,8.60
2019-03-17T02:09:01.489Z,8.50
2019-03-17T02:11:29.910Z,8.50
2019-03-17T02:13:58.332Z,8.50
2019-03-17T02:16:26.742Z,8.50
2019-03-17T02:18:55.166Z,8.50
2019-03-17T02:21:23.568Z,8.50
2019-03-17T02:23:52.034Z,8.50
2019-03-17T02:26:20.474Z,8.50
2019-03-17T02:28:48.889Z,8.50
2019-03-17T02:31:17.377Z,8.50
2019-03-17T02:33:45.874Z,8.60
2019-03-17T02:36:14.328Z,8.60
2019-03-17T02:38:42.822Z,8.60
2019-03-17T02:41:11.274Z,8.60
2019-03-17T02:43:39.696Z,8.60
2019-03-17T02:46:08.190Z,8.50
2019-03-17T02:48:36.892Z,8.50
2019-03-17T02:51:05.345Z,8.50
2019-03-17T02:53:33.756Z,8.50
2019-03-17T02:56:02.280Z,8.50
2019-03-17T02:58:30.698Z,8.50
2019-03-17T03:00:59.166Z,8.50
2019-03-17T03:03:27.583Z,8.40
2019-03-17T03:05:56.160Z,8.40
2019-03-17T03:08:24.698Z,8.40
2019-03-17T03:10:53.277Z,8.40
2019-03-17T03:13:21.725Z,8.50
2019-03-17T03:15:50.214Z,8.40
2019-03-17T03:18:18.630Z,8.40
2019-03-17T03:20:47.074Z,8.40
2019-03-17T03:23:15.535Z,8.30
2019-03-17T03:25:44.072Z,8.30
2019-03-17T03:28:12.542Z,8.30
2019-03-17T03:30:41.063Z,8.20
2019-03-17T03:33:09.560Z,8.20
2019-03-17T03:35:38.092Z,8.20
2019-03-17T03:38:06.493Z,8.20
2019-03-17T03:40:34.952Z,8.20
2019-03-17T03:43:03.464Z,8.20
2019-03-17T03:45:31.940Z,8.10
2019-03-17T03:48:00.419Z,8.20
2019-03-17T03:50:28.889Z,8.10
2019-03-17T03:52:57.347Z,8.00
2019-03-17T03:55:25.787Z,8.00
2019-03-17T03:57:54.348Z,8.00
2019-03-17T04:00:22.771Z,8.00
2019-03-17T04:02:51.299Z,8.00
2019-03-17T04:05:19.685Z,8.00
2019-03-17T04:07:48.195Z,8.00
2019-03-17T04:10:16.750Z,8.00
2019-03-17T04:12:45.219Z,8.00
2019-03-17T04:15:13.803Z,8.00
2019-03-17T04:17:42.262Z,8.00
2019-03-17T04:20:13.654Z,8.00
2019-03-17T04:22:42.149Z,8.10
2019-03-17T04:25:12.625Z,8.10
2019-03-17T04:27:41.103Z,8.10
2019-03-17T04:30:10.773Z,8.10
2019-03-17T04:32:39.293Z,8.20
2019-03-17T04:35:08.107Z,8.20
2019-03-17T04:37:36.970Z,8.20
2019-03-17T04:40:07.394Z,8.30
2019-03-17T04:42:35.828Z,8.30
2019-03-17T04:45:04.736Z,8.30
2019-03-17T04:47:33.160Z,8.30
2019-03-17T04:50:01.587Z,8.30
2019-03-17T04:52:30.081Z,8.30
2019-03-17T04:54:58.486Z,8.20
2019-03-17T04:57:27.001Z,8.30
2019-03-17T04:59:55.416Z,8.20
2019-03-17T05:02:23.875Z,8.20
2019-03-17T05:04:52.286Z,8.20
2019-03-17T05:07:20.701Z,8.20
2019-03-17T05:09:49.107Z,8.20
2019-03-17T05:12:17.549Z,8.20
2019-03-17T05:14:46.029Z,8.10
2019-03-17T05:17:14.489Z,8.10
2019-03-17T05:19:42.969Z,8.10
2019-03-17T05:22:11.479Z,8.10
2019-03-17T05:24:39.948Z,8.10
2019-03-17T05:27:08.453Z,8.10
2019-03-17T05:29:36.844Z,8.10
2019-03-17T05:32:05.400Z,8.10
2019-03-17T05:34:33.808Z,8.10
2019-03-17T05:37:06.597Z,8.10
2019-03-17T05:39:32.405Z,8.20
2019-03-17T05:42:00.817Z,8.20
2019-03-17T05:44:29.277Z,8.20
2019-03-17T05:46:57.970Z,8.20
2019-03-17T05:49:26.421Z,8.20
2019-03-17T05:51:54.838Z,8.30
2019-03-17T05:54:23.284Z,8.30
2019-03-17T05:56:51.707Z,8.40
2019-03-17T05:59:20.222Z,8.40
2019-03-17T06:01:48.746Z,8.40
2019-03-17T06:04:17.213Z,8.50
2019-03-17T06:06:45.657Z,8.60
2019-03-17T06:09:14.109Z,8.70
2019-03-17T06:11:42.530Z,8.80
2019-03-17T06:14:11.013Z,8.90
2019-03-17T06:16:39.443Z,9.00
2019-03-17T06:19:07.945Z,9.10
2019-03-17T06:21:36.651Z,9.20
2019-03-17T06:24:05.338Z,9.20
2019-03-17T06:26:33.816Z,9.50
2019-03-17T06:29:02.568Z,9.60
2019-03-17T06:31:31.038Z,9.80
2019-03-17T06:33:59.471Z,9.90
2019-03-17T06:36:27.909Z,10.10
2019-03-17T06:38:56.331Z,10.10
2019-03-17T06:41:24.749Z,10.20
2019-03-17T06:43:53.215Z,10.30
2019-03-17T06:46:21.682Z,10.50
2019-03-17T06:48:50.272Z,10.60
2019-03-17T06:51:18.792Z,10.80
2019-03-17T06:53:56.307Z,10.90
2019-03-17T06:56:17.477Z,11.00
2019-03-17T06:58:46.029Z,11.20
2019-03-17T07:01:14.464Z,11.30
2019-03-17T07:03:42.979Z,11.50
2019-03-17T07:06:11.419Z,11.60
2019-03-17T07:08:39.875Z,11.90
2019-03-17T07:11:11.071Z,12.10
2019-03-17T07:13:39.413Z,12.50
2019-03-17T07:16:08.074Z,12.70
2019-03-17T07:18:36.529Z,13.00
2019-03-17T07:21:04.957Z,13.40
2019-03-17T07:23:34.372Z,13.70
2019-03-17T07:26:02.933Z,13.90
2019-03-17T07:28:31.410Z,14.10
2019-03-17T07:30:59.995Z,14.30
2019-03-17T07:33:28.562Z,14.50
2019-03-17T07:35:56.985Z,14.80
2019-03-17T07:38:26.238Z,14.90
2019-03-17T07:40:54.634Z,15.00
2019-03-17T07:43:23.102Z,15.00
2019-03-17T07:45:51.558Z,15.00
2019-03-17T07:48:19.980Z,15.00
2019-03-17T07:50:48.455Z,15.10
2019-03-17T07:53:17.346Z,15.20
2019-03-17T07:55:45.818Z,15.20
2019-03-17T07:58:14.601Z,15.20
2019-03-17T08:00:43.067Z,15.20
2019-03-17T08:03:11.462Z,15.30
2019-03-17T08:05:39.925Z,15.30
2019-03-17T08:08:09.731Z,15.30
2019-03-17T08:10:38.602Z,15.40
2019-03-17T08:13:07.031Z,15.40
2019-03-17T08:15:35.485Z,15.50
2019-03-17T08:18:04.062Z,15.60
2019-03-17T08:20:32.773Z,15.70
2019-03-17T08:23:01.766Z,15.80
2019-03-17T08:25:30.275Z,15.90
2019-03-17T08:27:59.034Z,16.00
2019-03-17T08:30:27.526Z,16.10
2019-03-17T08:32:56.097Z,16.10
2019-03-17T08:35:24.679Z,16.20
2019-03-17T08:37:53.165Z,16.20
2019-03-17T08:40:21.620Z,16.30
2019-03-17T08:42:50.092Z,16.40
2019-03-17T08:45:18.591Z,16.50
2019-03-17T08:47:57.197Z,16.70
2019-03-17T08:50:17.557Z,17.00
2019-03-17T08:52:46.139Z,17.10
2019-03-17T08:55:14.660Z,17.10
2019-03-17T08:57:43.149Z,17.20
2019-03-17T09:00:16.703Z,17.40
2019-03-17T09:02:45.653Z,17.60
2019-03-17T09:05:14.176Z,17.60
2019-03-17T09:07:42.673Z,17.70
2019-03-17T09:10:15.187Z,17.60
2019-03-17T09:12:43.733Z,17.50
2019-03-17T09:15:12.215Z,17.40
2019-03-17T09:17:40.631Z,17.60
2019-03-17T09:20:15.968Z,17.80
2019-03-17T09:22:44.806Z,18.10
2019-03-17T09:25:13.275Z,18.20
2019-03-17T09:27:42.084Z,18.40
2019-03-17T09:30:15.380Z,18.60
2019-03-17T09:32:43.853Z,18.60
2019-03-17T09:35:12.546Z,18.60
2019-03-17T09:37:41.084Z,18.50
2019-03-17T09:40:19.740Z,18.60
2019-03-17T09:42:48.183Z,18.80
2019-03-17T09:45:16.804Z,18.80
2019-03-17T09:47:45.287Z,18.90
2019-03-17T09:50:21.187Z,18.90
2019-03-17T09:52:49.689Z,18.80
2019-03-17T09:55:18.123Z,18.60
2019-03-17T09:57:46.683Z,18.50
2019-03-17T10:00:19.066Z,18.40
2019-03-17T10:02:47.567Z,18.40
2019-03-17T10:05:16.386Z,18.30
2019-03-17T10:07:46.084Z,18.20
2019-03-17T10:10:16.189Z,18.30
2019-03-17T10:12:44.623Z,18.30
2019-03-17T10:15:14.910Z,18.40
2019-03-17T10:17:43.343Z,18.50
2019-03-17T10:20:16.989Z,18.60
2019-03-17T10:22:45.470Z,18.70
2019-03-17T10:25:13.979Z,18.80
2019-03-17T10:27:42.549Z,18.90
2019-03-17T10:30:21.928Z,18.90
2019-03-17T10:32:50.473Z,19.10
2019-03-17T10:35:19.047Z,19.00
2019-03-17T10:37:47.478Z,18.90
2019-03-17T10:40:20.638Z,18.80
2019-03-17T10:42:49.504Z,18.90
2019-03-17T10:45:18.287Z,19.00
2019-03-17T10:47:46.725Z,19.00
2019-03-17T10:50:20.281Z,19.10
2019-03-17T10:52:48.694Z,19.20
2019-03-17T10:55:17.301Z,19.40
2019-03-17T10:57:45.830Z,19.20
2019-03-17T11:00:20.978Z,19.20
2019-03-17T11:02:49.391Z,19.10
2019-03-17T11:05:17.809Z,19.10
2019-03-17T11:07:46.281Z,19.00
2019-03-17T11:10:15.033Z,19.00
2019-03-17T11:12:43.485Z,19.00
2019-03-17T11:15:17.142Z,19.10
2019-03-17T11:17:45.666Z,19.00
2019-03-17T11:20:14.850Z,19.00
2019-03-17T11:22:43.354Z,18.90
2019-03-17T11:25:13.460Z,19.10
2019-03-17T11:27:42.037Z,19.00
2019-03-17T11:30:18.485Z,18.90
2019-03-17T11:32:47.293Z,18.80
2019-03-17T11:35:15.858Z,18.80
2019-03-17T11:37:44.346Z,18.70
2019-03-17T11:40:17.533Z,18.40
2019-03-17T11:42:46.027Z,18.30
2019-03-17T11:45:15.532Z,18.20
2019-03-17T11:47:44.346Z,18.30
2019-03-17T11:50:17.779Z,18.30
2019-03-17T11:52:46.223Z,18.20
2019-03-17T11:55:14.783Z,18.10
2019-03-17T11:57:43.302Z,18.00
2019-03-17T12:00:19.735Z,18.00
2019-03-17T12:02:48.300Z,17.80
2019-03-17T12:05:16.805Z,17.90
2019-03-17T12:07:45.289Z,17.90
2019-03-17T12:10:18.803Z,17.80
2019-03-17T12:12:47.339Z,17.70
2019-03-17T12:15:24.282Z,17.80
2019-03-17T12:17:53.220Z,17.80
2019-03-17T12:20:21.709Z,17.90
2019-03-17T12:22:50.140Z,18.00
2019-03-17T12:25:19.630Z,17.90
2019-03-17T12:27:48.085Z,17.90
2019-03-17T12:30:20.495Z,18.00
2019-03-17T12:32:50.558Z,18.00
2019-03-17T12:35:19.092Z,17.90
2019-03-17T12:37:47.634Z,18.00
2019-03-17T12:40:16.237Z,18.10
2019-03-17T12:42:44.705Z,18.20
2019-03-17T12:45:13.859Z,18.20
2019-03-17T12:47:42.296Z,18.20
2019-03-17T12:50:20.734Z,18.20
2019-03-17T12:52:49.164Z,18.10
2019-03-17T12:55:17.603Z,18.10
2019-03-17T12:57:46.036Z,18.00
2019-03-17T13:00:28.051Z,17.90
2019-03-17T13:02:56.515Z,17.90
2019-03-17T13:05:24.950Z,17.90
2019-03-17T13:07:53.436Z,17.80
2019-03-17T13:10:22.394Z,17.80
2019-03-17T13:12:50.819Z,18.00
2019-03-17T13:15:19.317Z,18.10
2019-03-17T13:17:47.745Z,18.00
2019-03-17T13:20:17.422Z,18.00
2019-03-17T13:22:45.870Z,18.10
2019-03-17T13:25:14.407Z,18.10
2019-03-17T13:27:42.845Z,18.00
2019-03-17T13:30:16.657Z,17.90
2019-03-17T13:32:45.302Z,17.80
2019-03-17T13:35:13.938Z,17.70
2019-03-17T13:37:42.417Z,17.60
2019-03-17T13:40:28.685Z,17.50
2019-03-17T13:42:48.827Z,17.40
2019-03-17T13:45:17.471Z,17.50
2019-03-17T13:47:45.913Z,17.50
2019-03-17T13:50:19.174Z,17.60
2019-03-17T13:52:47.652Z,17.50
2019-03-17T13:55:16.081Z,17.50
2019-03-17T13:57:47.733Z,17.40
2019-03-17T14:00:16.170Z,17.40
2019-03-17T14:02:44.750Z,17.40
2019-03-17T14:05:14.123Z,17.40
2019-03-17T14:07:42.646Z,17.40
2019-03-17T14:10:14.462Z,17.30
2019-03-17T14:12:43.177Z,17.20
2019-03-17T14:15:13.471Z,17.10
2019-03-17T14:17:41.953Z,17.00
2019-03-17T14:20:21.640Z,17.00
2019-03-17T14:22:50.224Z,17.00
2019-03-17T14:25:23.864Z,17.00
2019-03-17T14:27:52.304Z,17.00
2019-03-17T14:30:20.869Z,17.00
2019-03-17T14:32:49.629Z,17.00
2019-03-17T14:35:21.303Z,16.90
2019-03-17T14:37:49.351Z,16.90
2019-03-17T14:40:17.966Z,17.00
2019-03-17T14:42:47.703Z,16.90
2019-03-17T14:45:17.390Z,17.00
2019-03-17T14:47:45.896Z,17.00
2019-03-17T14:50:17.007Z,17.00
2019-03-17T14:52:45.832Z,16.90
2019-03-17T14:55:14.369Z,16.90
2019-03-17T14:57:42.801Z,16.80
2019-03-17T15:00:18.970Z,16.80
2019-03-17T15:02:47.787Z,16.90
2019-03-17T15:05:16.302Z,16.70
2019-03-17T15:07:44.870Z,16.70
2019-03-17T15:10:18.734Z,16.60
2019-03-17T15:12:47.349Z,16.50
2019-03-17T15:15:20.901Z,16.50
2019-03-17T15:17:49.693Z,16.40
2019-03-17T15:20:27.958Z,16.50
2019-03-17T15:22:56.472Z,16.50
2019-03-17T15:25:25.164Z,16.40
2019-03-17T15:27:53.616Z,16.40
2019-03-17T15:30:26.899Z,16.30
2019-03-17T15:32:56.223Z,16.30
2019-03-17T15:35:24.783Z,16.30
2019-03-17T15:37:53.229Z,16.30
2019-03-17T15:40:22.223Z,16.20
2019-03-17T15:42:50.691Z,16.20
2019-03-17T15:45:23.400Z,16.20
2019-03-17T15:47:52.069Z,16.10
2019-03-17T15:50:25.463Z,16.10
2019-03-17T15:52:53.974Z,16.00
2019-03-17T15:55:22.483Z,15.60
2019-03-17T15:57:50.955Z,15.10
2019-03-17T16:00:26.637Z,14.90
2019-03-17T16:02:55.183Z,14.70
2019-03-17T16:05:23.703Z,14.30
2019-03-17T16:07:52.139Z,13.80
2019-03-17T16:10:27.833Z,13.50
2019-03-17T16:12:56.259Z,13.00
2019-03-17T16:15:24.788Z,12.70
2019-03-17T16:17:53.193Z,12.60
2019-03-17T16:20:23.765Z,12.40
2019-03-17T16:22:52.482Z,12.20
2019-03-17T16:25:23.997Z,11.90
2019-03-17T16:27:52.431Z,11.30
2019-03-17T16:30:23.298Z,10.70
2019-03-17T16:32:51.782Z,10.30
2019-03-17T16:35:20.321Z,10.10
2019-03-17T16:37:48.799Z,9.90
2019-03-17T16:40:23.208Z,9.90
2019-03-17T16:42:53.692Z,9.70
2019-03-17T16:45:21.945Z,9.60
2019-03-17T16:47:50.779Z,9.50
2019-03-17T16:50:23.369Z,9.40
2019-03-17T16:52:51.953Z,9.30
2019-03-17T16:55:20.462Z,9.10
2019-03-17T16:57:48.931Z,9.00
2019-03-17T17:00:21.360Z,9.10
2019-03-17T17:02:50.330Z,9.10
2019-03-17T17:05:19.819Z,9.10
2019-03-17T17:07:48.297Z,9.00
2019-03-17T17:10:21.851Z,8.80
2019-03-17T17:12:50.367Z,8.60
2019-03-17T17:15:26.678Z,8.60
2019-03-17T17:17:55.131Z,8.50
2019-03-17T17:20:26.283Z,8.50
2019-03-17T17:22:54.849Z,8.40
2019-03-17T17:25:23.266Z,8.40
2019-03-17T17:27:51.781Z,8.40
2019-03-17T17:30:20.637Z,8.40
2019-03-17T17:32:49.729Z,8.20
2019-03-17T17:35:18.193Z,8.00
2019-03-17T17:37:46.637Z,8.00
2019-03-17T17:40:22.849Z,7.80
2019-03-17T17:42:51.312Z,7.80
2019-03-17T17:45:24.241Z,7.70
2019-03-17T17:47:52.709Z,7.70
2019-03-17T17:50:31.176Z,7.60
2019-03-17T17:52:59.681Z,7.60
2019-03-17T17:55:28.093Z,7.50
2019-03-17T17:57:56.676Z,7.50
2019-03-17T18:00:26.806Z,7.40
2019-03-17T18:02:55.359Z,7.30
2019-03-17T18:05:23.939Z,7.40
2019-03-17T18:07:52.540Z,7.40
2019-03-17T18:10:21.018Z,7.40
2019-03-17T18:12:49.457Z,7.40
2019-03-17T18:15:28.897Z,7.40
2019-03-17T18:17:57.456Z,7.40
2019-03-17T18:20:25.975Z,7.50
2019-03-17T18:22:54.489Z,7.50
2019-03-17T18:25:23.036Z,7.40
2019-03-17T18:27:51.673Z,7.30
2019-03-17T18:30:24.894Z,7.40
2019-03-17T18:32:54.644Z,7.40
2019-03-17T18:35:23.070Z,7.30
2019-03-17T18:37:51.830Z,7.30
2019-03-17T18:40:21.332Z,7.30
2019-03-17T18:42:50.402Z,7.30
2019-03-17T18:45:30.338Z,7.40
2019-03-17T18:47:58.943Z,7.40
2019-03-17T18:50:27.462Z,7.50
2019-03-17T18:52:56.013Z,7.40
2019-03-17T18:55:24.544Z,7.40
2019-03-17T18:57:53.852Z,7.30
2019-03-17T19:00:26.135Z,7.20
2019-03-17T19:02:54.744Z,7.20
2019-03-17T19:05:23.502Z,7.20
2019-03-17T19:07:51.946Z,7.10
2019-03-17T19:10:21.071Z,7.00
2019-03-17T19:12:49.631Z,6.90
2019-03-17T19:15:19.385Z,6.90
2019-03-17T19:17:47.989Z,6.80
2019-03-17T19:20:17.644Z,6.80
2019-03-17T19:22:49.364Z,6.70
2019-03-17T19:25:22.989Z,6.70
2019-03-17T19:27:51.625Z,6.80
2019-03-17T19:30:21.574Z,6.90
2019-03-17T19:32:50.041Z,6.90
2019-03-17T19:35:18.721Z,6.90
2019-03-17T19:37:47.478Z,6.90
2019-03-17T19:40:20.926Z,6.80
2019-03-17T19:42:58.626Z,6.80
2019-03-17T19:45:20.075Z,6.70
2019-03-17T19:47:48.586Z,6.60
2019-03-17T19:50:23.484Z,6.60
2019-03-17T19:52:51.941Z,6.30
2019-03-17T19:55:20.394Z,6.30
2019-03-17T19:57:48.968Z,6.20
2019-03-17T20:00:21.378Z,6.10
2019-03-17T20:02:51.762Z,6.10
2019-03-17T20:05:20.206Z,6.00
2019-03-17T20:07:48.697Z,6.00
2019-03-17T20:10:31.910Z,6.00
2019-03-17T20:13:10.809Z,5.90
2019-03-17T20:15:30.794Z,5.80
2019-03-17T20:17:59.203Z,5.70
2019-03-17T20:20:27.736Z,5.70
2019-03-17T20:22:56.198Z,5.50
2019-03-17T20:25:25.621Z,5.50
2019-03-17T20:27:54.053Z,5.50
2019-03-17T20:30:22.564Z,5.50
2019-03-17T20:32:52.306Z,5.60
2019-03-17T20:35:20.722Z,5.60
2019-03-17T20:37:49.156Z,5.60
2019-03-17T20:40:18.965Z,5.70
2019-03-17T20:42:47.540Z,5.70
2019-03-17T20:45:16.981Z,5.80
2019-03-17T20:47:46.866Z,5.70
2019-03-17T20:50:18.646Z,5.70
2019-03-17T20:52:47.081Z,5.80
2019-03-17T20:55:15.843Z,5.90
2019-03-17T20:57:44.629Z,5.90
2019-03-17T21:00:19.922Z,5.80
2019-03-17T21:02:48.334Z,5.80
2019-03-17T21:05:16.826Z,5.90
2019-03-17T21:07:45.222Z,5.90
2019-03-17T21:10:14.816Z,6.00
2019-03-17T21:12:43.309Z,6.00
2019-03-17T21:15:16.495Z,6.00
2019-03-17T21:17:44.921Z,6.00
2019-03-17T21:20:15.041Z,6.00
2019-03-17T21:22:43.878Z,6.10
2019-03-17T21:25:12.359Z,6.10
2019-03-17T21:27:40.796Z,6.10
2019-03-17T21:30:26.064Z,6.10
2019-03-17T21:32:54.570Z,6.10
2019-03-17T21:35:23.002Z,6.20
2019-03-17T21:37:51.794Z,6.10
2019-03-17T21:40:20.278Z,6.10
2019-03-17T21:42:49.061Z,6.00
2019-03-17T21:45:17.485Z,5.90
2019-03-17T21:47:45.915Z,5.90
2019-03-17T21:50:16.431Z,5.90
2019-03-17T21:52:44.866Z,5.80
2019-03-17T21:55:13.992Z,5.80
2019-03-17T21:57:42.610Z,5.90
2019-03-17T22:00:18.614Z,5.90
2019-03-17T22:02:47.081Z,5.80
2019-03-17T22:05:16.148Z,5.80
2019-03-17T22:07:49.988Z,5.80
2019-03-17T22:10:17.599Z,5.80
2019-03-17T22:12:46.397Z,5.90
2019-03-17T22:15:15.960Z,5.80
2019-03-17T22:17:44.691Z,5.80
2019-03-17T22:20:15.104Z,5.80
2019-03-17T22:22:44.597Z,5.80
2019-03-17T22:25:14.269Z,5.80
2019-03-17T22:27:42.754Z,5.90
2019-03-17T22:30:18.337Z,6.00
2019-03-17T22:32:47.048Z,5.90
2019-03-17T22:35:15.546Z,5.90
2019-03-17T22:37:44.039Z,5.90
2019-03-17T22:40:13.415Z,5.90
2019-03-17T22:42:41.854Z,5.90
2019-03-17T22:45:12.440Z,5.90
2019-03-17T22:47:41.142Z,5.80
2019-03-17T22:50:17.801Z,5.80
2019-03-17T22:52:46.456Z,5.70
2019-03-17T22:55:15.063Z,5.80
2019-03-17T22:57:44.526Z,5.80
2019-03-17T23:00:21.991Z,5.90
2019-03-17T23:02:50.445Z,5.80
2019-03-17T23:05:18.871Z,5.70
2019-03-17T23:07:47.272Z,5.80
2019-03-17T23:10:15.938Z,5.80
2019-03-17T23:12:44.372Z,5.70
2019-03-17T23:15:13.454Z,5.80
2019-03-17T23:17:41.962Z,5.80
2019-03-17T23:20:14.838Z,5.80
2019-03-17T23:22:43.337Z,5.80
2019-03-17T23:25:12.826Z,5.70
2019-03-17T23:27:41.251Z,5.70
2019-03-17T23:30:12.561Z,5.60
2019-03-17T23:32:41.021Z,5.50
2019-03-17T23:35:09.593Z,5.60
2019-03-17T23:37:38.034Z,5.60
2019-03-17T23:40:09.801Z,5.60
2019-03-17T23:42:38.397Z,5.60
2019-03-17T23:45:11.695Z,5.60
2019-03-17T23:47:40.102Z,5.60
2019-03-17T23:50:10.483Z,5.70
2019-03-17T23:52:38.910Z,5.70
2019-03-17T23:55:10.012Z,5.70
2019-03-17T23:57:38.449Z,5.60
